DAOI

Ech Cheliff Airport

Algeria
TAF DAOI 241700Z 2418/2518 04011KT CAVOK BECMG 2421/2424 VRB02KT BECMG 2510/2512 06012KT
Issued Valid From Valid To
Sep-24 @ 17:00 UTC
(3 hours ago)
Sep-24 @ 18:00 UTC
(2 hours ago)
Sep-25 @ 18:00 UTC
(in 22 hours)
Sep-24 @ 18:00 to Sep-24 @ 21:00
TAF DAOI 241700Z 2418/2518 04011KT CAVOK
Wind Visibility Clouds Conditions
40° at 11 knots 10,000+ meters
  • No significant clouds
Becoming Sep-24 @ 21:00 to Sep-25 @ 10:00
BECMG 2421/2424 VRB02KT
Wind Visibility Clouds Conditions
Variable at 2 knots 10,000+ meters
  • No significant clouds
Becoming Sep-25 @ 10:00 to Sep-25 @ 18:00
BECMG 2510/2512 06012KT
Wind Visibility Clouds Conditions
60° at 12 knots 10,000+ meters
  • No significant clouds
TAF DAOI 241700Z 2418/2518 04011KT CAVOK BECMG 2421/2424 VRB02KT BECMG 2510/2512 06012KT
Issued Sep-24 @ 17:00 UTC
(3 hours ago)
Valid From Sep-24 @ 18:00 UTC
(2 hours ago)
Valid To Sep-25 @ 18:00 UTC
(in 22 hours)
Sep-24 @ 18:00 - Sep-24 @ 21:00
Wind Visibility
40° at 11 knots 10,000+ meters
Clouds
  • No significant clouds
Conditions
Becoming Sep-24 @ 21:00 - Sep-25 @ 10:00
Wind Visibility
Variable at 2 knots 10,000+ meters
Clouds
  • No significant clouds
Conditions
Becoming Sep-25 @ 10:00 - Sep-25 @ 18:00
Wind Visibility
60° at 12 knots 10,000+ meters
Clouds
  • No significant clouds
Conditions